createdAt,value
2017-05-06T00:00:09.567Z,64.95
2017-05-06T00:01:11.930Z,64.59
2017-05-06T00:02:14.297Z,64.69
2017-05-06T00:03:17.206Z,64.89
2017-05-06T00:04:19.569Z,64.47
2017-05-06T00:05:21.927Z,64.31
2017-05-06T00:06:24.289Z,64.50
2017-05-06T00:07:26.646Z,63.98
2017-05-06T00:08:29.605Z,63.79
2017-05-06T00:09:31.969Z,63.70
2017-05-06T00:10:34.326Z,63.53
2017-05-06T00:11:36.694Z,64.21
2017-05-06T00:12:39.051Z,63.53
2017-05-06T00:13:42.018Z,63.92
2017-05-06T00:14:44.390Z,64.21
2017-05-06T00:15:46.756Z,63.89
2017-05-06T00:16:49.115Z,63.34
2017-05-06T00:17:51.468Z,64.01
2017-05-06T00:18:54.430Z,63.53
2017-05-06T00:19:56.785Z,62.95
2017-05-06T00:20:59.142Z,63.31
2017-05-06T00:22:01.504Z,63.21
2017-05-06T00:23:03.851Z,62.86
2017-05-06T00:24:06.814Z,62.86
2017-05-06T00:25:09.177Z,63.70
2017-05-06T00:26:11.544Z,63.50
2017-05-06T00:27:13.895Z,63.89
2017-05-06T00:28:16.251Z,63.70
2017-05-06T00:29:19.363Z,63.40
2017-05-06T00:30:21.730Z,62.92
2017-05-06T00:31:24.094Z,62.54
2017-05-06T00:32:26.451Z,61.96
2017-05-06T00:33:28.809Z,61.09
2017-05-06T00:34:31.773Z,61.02
2017-05-06T00:35:34.129Z,61.09
2017-05-06T00:36:36.488Z,61.28
2017-05-06T00:37:39.049Z,59.93
2017-05-06T00:38:41.413Z,59.86
2017-05-06T00:39:44.375Z,59.93
2017-05-06T00:40:46.738Z,59.93
2017-05-06T00:41:49.101Z,59.00
2017-05-06T00:42:51.472Z,58.51
2017-05-06T00:43:53.825Z,58.39
2017-05-06T00:44:56.785Z,57.84
2017-05-06T00:45:59.150Z,57.81
2017-05-06T00:47:01.512Z,57.90
2017-05-06T00:48:03.870Z,58.68
2017-05-06T00:49:06.232Z,58.77
2017-05-06T00:50:09.190Z,58.68
2017-05-06T00:51:11.555Z,58.19
2017-05-06T00:52:13.909Z,58.39
2017-05-06T00:53:16.275Z,58.58
2017-05-06T00:54:18.628Z,58.19
2017-05-06T00:55:21.749Z,58.00
2017-05-06T00:56:24.129Z,58.10
2017-05-06T00:57:26.490Z,57.71
2017-05-06T00:58:28.856Z,57.42
2017-05-06T00:59:31.214Z,57.14
2017-05-06T01:00:34.182Z,57.14
2017-05-06T01:01:36.536Z,57.14
2017-05-06T01:02:38.884Z,56.46
2017-05-06T01:03:41.251Z,56.07
2017-05-06T01:04:43.815Z,55.98
2017-05-06T01:05:46.783Z,55.01
2017-05-06T01:06:49.140Z,54.62
2017-05-06T01:07:51.498Z,54.53
2017-05-06T01:08:53.863Z,54.33
2017-05-06T01:09:56.219Z,54.05
2017-05-06T01:10:59.178Z,54.43
2017-05-06T01:12:01.741Z,54.14
2017-05-06T01:13:04.111Z,53.17
2017-05-06T01:14:06.473Z,53.08
2017-05-06T01:15:08.843Z,52.89
2017-05-06T01:16:11.803Z,52.11
2017-05-06T01:17:14.178Z,51.05
2017-05-06T01:18:16.525Z,51.05
2017-05-06T01:19:18.886Z,49.92
2017-05-06T01:20:21.260Z,49.44
2017-05-06T01:21:24.224Z,47.31
2017-05-06T01:22:26.605Z,46.51
2017-05-06T01:23:28.972Z,46.64
2017-05-06T01:24:31.322Z,46.06
2017-05-06T01:25:33.677Z,46.06
2017-05-06T01:26:36.858Z,46.33
2017-05-06T01:27:39.205Z,46.03
2017-05-06T01:28:41.555Z,46.06
2017-05-06T01:29:44.117Z,46.15
2017-05-06T01:30:46.476Z,46.51
2017-05-06T01:31:49.482Z,45.94
2017-05-06T01:32:51.812Z,44.20
2017-05-06T01:33:54.169Z,44.49
2017-05-06T01:34:56.530Z,44.49
2017-05-06T01:35:58.889Z,44.59
2017-05-06T01:37:01.962Z,45.84
2017-05-06T01:38:04.322Z,44.97
2017-05-06T01:39:06.688Z,44.90
2017-05-06T01:40:09.054Z,44.97
2017-05-06T01:41:11.403Z,45.26
2017-05-06T01:42:14.473Z,43.62
2017-05-06T01:43:16.824Z,42.94
2017-05-06T01:44:19.201Z,42.56
2017-05-06T01:45:21.562Z,42.29
2017-05-06T01:46:23.926Z,42.56
2017-05-06T01:47:26.989Z,41.50
2017-05-06T01:48:29.379Z,40.53
2017-05-06T01:49:31.797Z,40.72
2017-05-06T01:50:34.134Z,39.57
2017-05-06T01:51:36.504Z,37.54
2017-05-06T01:52:39.559Z,37.06
2017-05-06T01:53:41.918Z,37.06
2017-05-06T01:54:44.287Z,37.25
2017-05-06T01:55:46.703Z,36.96
2017-05-06T01:56:49.076Z,37.06
2017-05-06T01:57:52.153Z,35.03
2017-05-06T01:58:54.563Z,35.52
2017-05-06T01:59:56.913Z,35.61
2017-05-06T02:00:59.276Z,35.71
2017-05-06T02:02:01.659Z,36.29
2017-05-06T02:03:04.629Z,36.87
2017-05-06T02:04:07.007Z,36.57
2017-05-06T02:05:09.476Z,36.19
2017-05-06T02:06:11.857Z,36.19
2017-05-06T02:07:14.260Z,36.29
2017-05-06T02:08:17.286Z,36.09
2017-05-06T02:09:19.758Z,36.09
2017-05-06T02:10:22.184Z,36.19
2017-05-06T02:11:24.571Z,36.19
2017-05-06T02:12:27.007Z,35.71
2017-05-06T02:13:32.008Z,35.61
2017-05-06T02:14:34.437Z,35.61
2017-05-06T02:15:36.836Z,35.61
2017-05-06T02:16:39.255Z,36.09
2017-05-06T02:17:41.692Z,36.29
2017-05-06T02:18:44.718Z,36.48
2017-05-06T02:19:47.149Z,36.29
2017-05-06T02:20:49.571Z,35.61
2017-05-06T02:21:52.001Z,35.90
2017-05-06T02:22:54.432Z,37.25
2017-05-06T02:23:57.425Z,37.06
2017-05-06T02:24:59.836Z,36.96
2017-05-06T02:26:02.245Z,36.29
2017-05-06T02:27:04.677Z,36.87
2017-05-06T02:28:07.136Z,37.15
2017-05-06T02:29:10.104Z,37.15
2017-05-06T02:30:12.535Z,36.87
2017-05-06T02:31:14.963Z,36.67
2017-05-06T02:32:17.377Z,36.96
2017-05-06T02:33:19.803Z,36.77
2017-05-06T02:34:22.779Z,36.19
2017-05-06T02:35:25.174Z,35.80
2017-05-06T02:36:27.617Z,34.84
2017-05-06T02:37:30.058Z,35.22
2017-05-06T02:38:32.456Z,35.32
2017-05-06T02:39:35.597Z,35.71
2017-05-06T02:40:38.008Z,35.80
2017-05-06T02:41:40.473Z,35.61
2017-05-06T02:42:43.111Z,35.71
2017-05-06T02:43:45.545Z,35.03
2017-05-06T02:44:48.690Z,35.32
2017-05-06T02:45:51.086Z,34.55
2017-05-06T02:46:53.486Z,34.26
2017-05-06T02:47:55.936Z,33.87
2017-05-06T02:48:58.337Z,34.55
2017-05-06T02:50:01.402Z,36.19
2017-05-06T02:51:03.847Z,37.45
2017-05-06T02:52:06.276Z,37.83
2017-05-06T02:53:08.700Z,38.99
2017-05-06T02:54:11.128Z,38.79
2017-05-06T02:55:14.102Z,38.21
2017-05-06T02:56:16.532Z,37.45
2017-05-06T02:57:18.965Z,36.77
2017-05-06T02:58:21.391Z,36.77
2017-05-06T02:59:23.803Z,36.29
2017-05-06T03:00:26.859Z,36.67
2017-05-06T03:01:29.256Z,37.15
2017-05-06T03:02:31.682Z,36.87
2017-05-06T03:03:34.137Z,36.77
2017-05-06T03:04:36.475Z,36.29
2017-05-06T03:05:39.452Z,36.96
2017-05-06T03:06:41.814Z,36.67
2017-05-06T03:07:44.172Z,36.96
2017-05-06T03:08:46.529Z,36.77
2017-05-06T03:09:48.888Z,36.48
2017-05-06T03:10:51.949Z,37.06
2017-05-06T03:11:54.310Z,37.54
2017-05-06T03:12:56.668Z,37.06
2017-05-06T03:13:59.027Z,36.87
2017-05-06T03:15:01.388Z,37.54
2017-05-06T03:16:04.346Z,36.96
2017-05-06T03:17:06.695Z,36.67
2017-05-06T03:18:09.046Z,37.54
2017-05-06T03:19:11.420Z,37.63
2017-05-06T03:20:13.774Z,37.35
2017-05-06T03:21:16.738Z,37.54
2017-05-06T03:22:19.095Z,36.87
2017-05-06T03:23:21.455Z,36.29
2017-05-06T03:24:23.812Z,35.61
2017-05-06T03:25:26.179Z,35.90
2017-05-06T03:26:29.081Z,35.80
2017-05-06T03:27:31.443Z,35.13
2017-05-06T03:28:33.814Z,33.87
2017-05-06T03:29:36.175Z,34.94
2017-05-06T03:30:38.553Z,35.80
2017-05-06T03:31:41.523Z,36.19
2017-05-06T03:32:43.906Z,35.80
2017-05-06T03:33:46.233Z,35.80
2017-05-06T03:34:48.599Z,35.52
2017-05-06T03:35:50.965Z,34.84
2017-05-06T03:36:53.873Z,34.94
2017-05-06T03:37:56.238Z,34.94
2017-05-06T03:38:58.589Z,35.32
2017-05-06T03:40:00.955Z,35.03
2017-05-06T03:41:03.311Z,35.03
2017-05-06T03:42:06.261Z,34.94
2017-05-06T03:43:08.615Z,35.42
2017-05-06T03:44:10.978Z,35.32
2017-05-06T03:45:13.338Z,34.74
2017-05-06T03:46:15.703Z,34.55
2017-05-06T03:47:18.609Z,34.94
2017-05-06T03:48:20.962Z,35.32
2017-05-06T03:49:23.317Z,34.94
2017-05-06T03:50:25.681Z,34.84
2017-05-06T03:51:28.044Z,35.22
2017-05-06T03:52:31.111Z,35.13
2017-05-06T03:53:33.469Z,35.03
2017-05-06T03:54:35.838Z,34.26
2017-05-06T03:55:38.192Z,34.84
2017-05-06T03:56:40.563Z,34.26
2017-05-06T03:57:43.472Z,34.64
2017-05-06T03:58:45.828Z,34.45
2017-05-06T03:59:48.181Z,33.10
2017-05-06T04:00:50.539Z,33.10
2017-05-06T04:01:52.905Z,33.10
2017-05-06T04:02:55.868Z,33.58
2017-05-06T04:03:58.424Z,33.39
2017-05-06T04:05:00.785Z,33.48
2017-05-06T04:06:03.140Z,33.20
2017-05-06T04:07:05.515Z,33.87
2017-05-06T04:08:08.469Z,34.16
2017-05-06T04:09:10.837Z,34.16
2017-05-06T04:10:13.197Z,34.55
2017-05-06T04:11:15.569Z,34.16
2017-05-06T04:12:17.922Z,34.45
2017-05-06T04:13:20.883Z,33.48
2017-05-06T04:14:23.234Z,33.78
2017-05-06T04:15:25.598Z,33.68
2017-05-06T04:16:27.955Z,34.64
2017-05-06T04:17:30.313Z,34.06
2017-05-06T04:18:33.374Z,34.36
2017-05-06T04:19:35.735Z,34.84
2017-05-06T04:20:38.098Z,35.52
2017-05-06T04:21:40.460Z,34.45
2017-05-06T04:22:42.814Z,35.42
2017-05-06T04:23:45.873Z,34.64
2017-05-06T04:24:48.233Z,34.55
2017-05-06T04:25:50.583Z,34.84
2017-05-06T04:26:53.166Z,35.52
2017-05-06T04:27:55.533Z,34.84
2017-05-06T04:28:58.437Z,35.61
2017-05-06T04:30:00.802Z,35.42
2017-05-06T04:31:03.162Z,34.84
2017-05-06T04:32:05.521Z,34.45
2017-05-06T04:33:07.878Z,34.45
2017-05-06T04:34:10.833Z,34.36
2017-05-06T04:35:13.193Z,34.36
2017-05-06T04:36:15.563Z,34.26
2017-05-06T04:37:17.922Z,34.74
2017-05-06T04:38:20.285Z,34.26
2017-05-06T04:39:23.240Z,34.16
2017-05-06T04:40:25.607Z,34.16
2017-05-06T04:41:27.953Z,34.26
2017-05-06T04:42:30.309Z,34.45
2017-05-06T04:43:32.669Z,34.45
2017-05-06T04:44:35.632Z,34.84
2017-05-06T04:45:37.986Z,34.45
2017-05-06T04:46:40.346Z,34.36
2017-05-06T04:47:42.717Z,34.36
2017-05-06T04:48:45.070Z,34.45
2017-05-06T04:49:48.129Z,34.36
2017-05-06T04:50:50.482Z,34.55
2017-05-06T04:51:52.839Z,34.36
2017-05-06T04:52:55.208Z,34.45
2017-05-06T04:53:57.566Z,33.97
2017-05-06T04:55:00.673Z,33.68
2017-05-06T04:56:03.038Z,33.87
2017-05-06T04:57:05.398Z,33.29
2017-05-06T04:58:07.761Z,33.29
2017-05-06T04:59:10.118Z,32.91
2017-05-06T05:00:13.180Z,33.78
2017-05-06T05:01:15.539Z,34.55
2017-05-06T05:02:17.891Z,33.97
2017-05-06T05:03:20.255Z,33.68
2017-05-06T05:04:22.609Z,33.48
2017-05-06T05:05:25.517Z,33.48
2017-05-06T05:06:27.881Z,33.58
2017-05-06T05:07:30.235Z,33.39
2017-05-06T05:08:32.594Z,33.48
2017-05-06T05:09:34.958Z,33.48
2017-05-06T05:10:37.917Z,33.10
2017-05-06T05:11:40.278Z,32.91
2017-05-06T05:12:42.634Z,33.10
2017-05-06T05:13:45.195Z,32.62
2017-05-06T05:14:47.555Z,32.52
2017-05-06T05:15:50.566Z,32.71
2017-05-06T05:16:52.930Z,32.81
2017-05-06T05:17:55.285Z,33.10
2017-05-06T05:18:57.649Z,32.43
2017-05-06T05:20:00.003Z,32.23
2017-05-06T05:21:02.963Z,32.23
2017-05-06T05:22:05.313Z,31.56
2017-05-06T05:23:07.683Z,32.04
2017-05-06T05:24:10.036Z,32.14
2017-05-06T05:25:12.396Z,32.62
2017-05-06T05:26:15.363Z,32.62
2017-05-06T05:27:17.717Z,32.23
2017-05-06T05:28:20.082Z,32.52
2017-05-06T05:29:22.445Z,32.52
2017-05-06T05:30:24.802Z,32.43
2017-05-06T05:31:27.759Z,32.33
2017-05-06T05:32:30.129Z,32.23
2017-05-06T05:33:32.492Z,32.52
2017-05-06T05:34:34.872Z,33.00
2017-05-06T05:35:37.210Z,33.39
2017-05-06T05:36:40.175Z,33.20
2017-05-06T05:37:42.523Z,32.62
2017-05-06T05:38:44.877Z,33.10
2017-05-06T05:39:47.232Z,33.20
2017-05-06T05:40:49.584Z,33.10
2017-05-06T05:41:52.544Z,32.91
2017-05-06T05:42:54.904Z,33.29
2017-05-06T05:43:57.263Z,33.39
2017-05-06T05:44:59.618Z,33.10
2017-05-06T05:46:01.971Z,32.81
2017-05-06T05:47:04.929Z,33.29
2017-05-06T05:48:07.294Z,33.39
2017-05-06T05:49:09.655Z,32.91
2017-05-06T05:50:12.011Z,33.58
2017-05-06T05:51:14.365Z,33.39
2017-05-06T05:52:17.320Z,33.20
2017-05-06T05:53:19.689Z,33.20
2017-05-06T05:54:22.051Z,33.10
2017-05-06T05:55:24.409Z,32.91
2017-05-06T05:56:26.770Z,32.91
2017-05-06T05:57:29.716Z,33.00
2017-05-06T05:58:32.077Z,33.20
2017-05-06T05:59:34.426Z,33.39
2017-05-06T06:00:36.785Z,33.10
2017-05-06T06:01:39.150Z,33.00
2017-05-06T06:02:42.210Z,33.78
2017-05-06T06:03:44.572Z,34.45
2017-05-06T06:04:46.928Z,34.55
2017-05-06T06:05:49.287Z,33.87
2017-05-06T06:06:51.647Z,33.58
2017-05-06T06:07:54.605Z,32.91
2017-05-06T06:08:56.959Z,33.10
2017-05-06T06:09:59.318Z,33.20
2017-05-06T06:11:01.683Z,33.00
2017-05-06T06:12:04.040Z,32.91
2017-05-06T06:13:06.994Z,33.00
2017-05-06T06:14:09.348Z,32.81
2017-05-06T06:15:11.711Z,32.91
2017-05-06T06:16:14.076Z,32.91
2017-05-06T06:17:16.433Z,33.10
2017-05-06T06:18:19.343Z,33.29
2017-05-06T06:19:21.716Z,33.97
2017-05-06T06:20:24.074Z,34.26
2017-05-06T06:21:26.427Z,34.36
2017-05-06T06:22:28.785Z,34.84
2017-05-06T06:23:31.845Z,35.42
2017-05-06T06:24:34.203Z,35.03
2017-05-06T06:25:36.570Z,34.55
2017-05-06T06:26:38.927Z,34.45
2017-05-06T06:27:41.286Z,34.26
2017-05-06T06:28:44.254Z,34.45
2017-05-06T06:29:46.613Z,34.45
2017-05-06T06:30:48.983Z,34.55
2017-05-06T06:31:51.336Z,34.16
2017-05-06T06:32:53.696Z,34.64
2017-05-06T06:33:56.654Z,34.84
2017-05-06T06:34:59.008Z,35.32
2017-05-06T06:36:01.368Z,35.61
2017-05-06T06:37:03.720Z,36.19
2017-05-06T06:38:06.083Z,36.38
2017-05-06T06:39:09.041Z,36.67
2017-05-06T06:40:11.398Z,37.15
2017-05-06T06:41:13.764Z,37.25
2017-05-06T06:42:16.131Z,37.63
2017-05-06T06:43:18.476Z,37.93
2017-05-06T06:44:21.441Z,37.54
2017-05-06T06:45:23.803Z,38.02
2017-05-06T06:46:26.154Z,37.83
2017-05-06T06:47:28.523Z,37.54
2017-05-06T06:48:30.873Z,37.54
2017-05-06T06:49:33.826Z,37.93
2017-05-06T06:50:36.201Z,37.35
2017-05-06T06:51:38.555Z,36.77
2017-05-06T06:52:40.942Z,37.45
2017-05-06T06:53:43.266Z,37.45
2017-05-06T06:54:46.233Z,37.35
2017-05-06T06:55:48.592Z,36.77
2017-05-06T06:56:50.944Z,37.06
2017-05-06T06:57:53.298Z,36.77
2017-05-06T06:58:55.649Z,36.09
2017-05-06T06:59:58.609Z,36.09
2017-05-06T07:01:00.969Z,36.38
2017-05-06T07:02:03.320Z,36.29
2017-05-06T07:03:05.689Z,36.77
2017-05-06T07:04:08.048Z,36.48
2017-05-06T07:05:11.019Z,36.87
2017-05-06T07:06:13.378Z,36.87
2017-05-06T07:07:15.738Z,36.87
2017-05-06T07:08:18.098Z,36.77
2017-05-06T07:09:20.463Z,36.77
2017-05-06T07:10:23.512Z,36.77
2017-05-06T07:11:25.882Z,35.90
2017-05-06T07:12:28.232Z,36.09
2017-05-06T07:13:30.603Z,36.87
2017-05-06T07:14:32.970Z,36.87
2017-05-06T07:15:35.921Z,36.87
2017-05-06T07:16:38.280Z,36.96
2017-05-06T07:17:40.639Z,36.29
2017-05-06T07:18:42.995Z,36.67
2017-05-06T07:19:45.352Z,36.19
2017-05-06T07:20:48.437Z,36.19
2017-05-06T07:21:50.778Z,36.09
2017-05-06T07:22:53.129Z,36.09
2017-05-06T07:23:55.489Z,36.09
2017-05-06T07:24:57.846Z,36.38
2017-05-06T07:26:00.901Z,36.67
2017-05-06T07:27:03.263Z,36.29
2017-05-06T07:28:05.614Z,36.57
2017-05-06T07:29:07.978Z,36.77
2017-05-06T07:30:10.342Z,36.00
2017-05-06T07:31:13.306Z,35.90
2017-05-06T07:32:15.660Z,35.80
2017-05-06T07:33:18.018Z,35.80
2017-05-06T07:34:20.370Z,35.90
2017-05-06T07:35:22.729Z,35.90
2017-05-06T07:36:25.787Z,36.77
2017-05-06T07:37:28.145Z,36.57
2017-05-06T07:38:30.503Z,36.29
2017-05-06T07:39:32.855Z,37.45
2017-05-06T07:40:35.212Z,37.83
2017-05-06T07:41:38.172Z,37.93
2017-05-06T07:42:40.537Z,37.06
2017-05-06T07:43:42.895Z,28.85
2017-05-06T07:44:45.244Z,28.36
2017-05-06T07:45:47.594Z,27.59
2017-05-06T07:46:50.549Z,26.82
2017-05-06T07:47:52.903Z,26.73
2017-05-06T07:48:55.261Z,26.34
2017-05-06T07:49:57.629Z,25.56
2017-05-06T07:50:59.976Z,25.48
2017-05-06T07:52:02.929Z,25.86
2017-05-06T07:53:05.292Z,25.57
2017-05-06T07:54:07.651Z,26.34
2017-05-06T07:55:10.008Z,25.95
2017-05-06T07:56:12.365Z,25.76
2017-05-06T07:57:15.320Z,25.86
2017-05-06T07:58:17.679Z,25.95
2017-05-06T07:59:20.036Z,25.66
2017-05-06T08:00:22.391Z,25.56
2017-05-06T08:01:24.747Z,24.71
2017-05-06T08:02:27.655Z,24.80
2017-05-06T08:03:30.025Z,25.09
2017-05-06T08:04:32.373Z,24.80
2017-05-06T08:05:34.731Z,24.40
2017-05-06T08:06:37.100Z,25.96
2017-05-06T08:07:40.052Z,26.81
2017-05-06T08:08:42.412Z,27.59
2017-05-06T08:09:44.770Z,27.49
2017-05-06T08:10:47.139Z,27.12
2017-05-06T08:11:49.490Z,27.40
2017-05-06T08:12:52.445Z,27.39
2017-05-06T08:13:54.804Z,27.22
2017-05-06T08:14:57.159Z,26.73
2017-05-06T08:15:59.516Z,26.33
2017-05-06T08:17:01.869Z,26.15
2017-05-06T08:18:04.837Z,25.96
2017-05-06T08:19:07.200Z,26.15
2017-05-06T08:20:09.556Z,26.06
2017-05-06T08:21:11.919Z,25.57
2017-05-06T08:22:14.279Z,26.14
2017-05-06T08:23:17.244Z,25.86
2017-05-06T08:24:19.606Z,25.96
2017-05-06T08:25:21.963Z,26.33
2017-05-06T08:26:24.319Z,26.25
2017-05-06T08:27:26.674Z,26.44
2017-05-06T08:28:29.627Z,26.25
2017-05-06T08:29:31.988Z,26.44
2017-05-06T08:30:34.354Z,26.15
2017-05-06T08:31:36.706Z,25.28
2017-05-06T08:32:39.067Z,25.96
2017-05-06T08:33:42.029Z,26.06
2017-05-06T08:34:44.389Z,26.44
2017-05-06T08:35:46.745Z,26.64
2017-05-06T08:36:49.115Z,26.25
2017-05-06T08:37:51.473Z,26.54
2017-05-06T08:38:54.426Z,26.73
2017-05-06T08:39:56.791Z,26.92
2017-05-06T08:40:59.151Z,27.12
2017-05-06T08:42:01.505Z,27.12
2017-05-06T08:43:03.864Z,27.22
2017-05-06T08:44:06.819Z,27.89
2017-05-06T08:45:09.176Z,28.28
2017-05-06T08:46:11.535Z,28.37
2017-05-06T08:47:13.890Z,27.98
2017-05-06T08:48:16.246Z,27.98
2017-05-06T08:49:19.198Z,27.60
2017-05-06T08:50:21.554Z,27.98
2017-05-06T08:51:23.908Z,27.70
2017-05-06T08:52:26.269Z,27.89
2017-05-06T08:53:28.625Z,28.08
2017-05-06T08:54:31.581Z,28.56
2017-05-06T08:55:33.948Z,28.37
2017-05-06T08:56:36.307Z,27.97
2017-05-06T08:57:38.666Z,28.28
2017-05-06T08:58:41.021Z,28.18
2017-05-06T08:59:44.073Z,28.26
2017-05-06T09:00:46.441Z,28.37
2017-05-06T09:01:48.795Z,28.07
2017-05-06T09:02:51.154Z,27.70
2017-05-06T09:03:53.504Z,28.07
2017-05-06T09:04:56.466Z,27.40
2017-05-06T09:05:58.822Z,27.29
2017-05-06T09:07:01.180Z,26.82
2017-05-06T09:08:03.543Z,26.34
2017-05-06T09:09:05.891Z,26.44
2017-05-06T09:10:08.953Z,26.54
2017-05-06T09:11:11.312Z,26.54
2017-05-06T09:12:13.668Z,26.44
2017-05-06T09:13:16.031Z,26.06
2017-05-06T09:14:18.383Z,26.15
2017-05-06T09:15:21.451Z,26.25
2017-05-06T09:16:23.815Z,26.92
2017-05-06T09:17:26.171Z,27.22
2017-05-06T09:18:28.533Z,27.31
2017-05-06T09:19:30.891Z,27.22
2017-05-06T09:20:33.951Z,27.22
2017-05-06T09:21:36.311Z,27.40
2017-05-06T09:22:38.664Z,27.98
2017-05-06T09:23:41.021Z,27.31
2017-05-06T09:24:43.377Z,27.50
2017-05-06T09:25:46.454Z,27.70
2017-05-06T09:26:48.801Z,27.68
2017-05-06T09:27:51.159Z,27.70
2017-05-06T09:28:53.519Z,28.18
2017-05-06T09:29:55.876Z,28.08
2017-05-06T09:30:58.827Z,27.70
2017-05-06T09:32:01.188Z,27.70
2017-05-06T09:33:03.542Z,27.68
2017-05-06T09:34:05.897Z,27.78
2017-05-06T09:35:08.255Z,28.16
2017-05-06T09:36:11.317Z,28.26
2017-05-06T09:37:13.677Z,28.64
2017-05-06T09:38:16.034Z,28.36
2017-05-06T09:39:18.393Z,28.26
2017-05-06T09:40:20.755Z,29.32
2017-05-06T09:41:23.714Z,29.22
2017-05-06T09:42:26.073Z,29.42
2017-05-06T09:43:28.436Z,29.80
2017-05-06T09:44:30.786Z,29.90
2017-05-06T09:45:33.147Z,29.52
2017-05-06T09:46:36.206Z,29.80
2017-05-06T09:47:38.558Z,30.29
2017-05-06T09:48:40.916Z,30.87
2017-05-06T09:49:43.275Z,31.45
2017-05-06T09:50:45.636Z,31.45
2017-05-06T09:51:48.603Z,32.12
2017-05-06T09:52:50.974Z,31.35
2017-05-06T09:53:53.333Z,31.93
2017-05-06T09:54:55.693Z,32.89
2017-05-06T09:55:58.064Z,32.41
2017-05-06T09:57:01.017Z,32.51
2017-05-06T09:58:03.381Z,32.70
2017-05-06T09:59:05.742Z,30.19
2017-05-06T10:00:08.096Z,29.42
2017-05-06T10:01:10.493Z,30.10
2017-05-06T10:02:13.514Z,30.58
2017-05-06T10:03:15.871Z,29.32
2017-05-06T10:04:18.228Z,29.71
2017-05-06T10:05:20.586Z,29.42
2017-05-06T10:06:22.946Z,30.19
2017-05-06T10:07:26.000Z,30.96
2017-05-06T10:08:28.355Z,30.29
2017-05-06T10:09:30.712Z,29.90
2017-05-06T10:10:33.064Z,29.71
2017-05-06T10:11:35.425Z,29.42
2017-05-06T10:12:38.376Z,28.74
2017-05-06T10:13:40.736Z,28.36
2017-05-06T10:14:43.091Z,28.07
2017-05-06T10:15:45.458Z,27.20
2017-05-06T10:16:47.830Z,28.16
2017-05-06T10:17:50.748Z,27.97
2017-05-06T10:18:53.101Z,28.36
2017-05-06T10:19:55.457Z,28.64
2017-05-06T10:20:57.821Z,27.97
2017-05-06T10:22:00.178Z,28.07
2017-05-06T10:23:03.237Z,28.07
2017-05-06T10:24:05.590Z,28.16
2017-05-06T10:25:07.952Z,29.52
2017-05-06T10:26:10.306Z,29.52
2017-05-06T10:27:12.660Z,29.32
2017-05-06T10:28:15.570Z,27.49
2017-05-06T10:29:17.927Z,26.91
2017-05-06T10:30:20.292Z,26.91
2017-05-06T10:31:22.647Z,26.62
2017-05-06T10:32:25.008Z,26.91
2017-05-06T10:33:27.957Z,26.23
2017-05-06T10:34:30.321Z,26.53
2017-05-06T10:35:32.685Z,25.56
2017-05-06T10:36:35.047Z,25.56
2017-05-06T10:37:37.407Z,25.46
2017-05-06T10:38:40.471Z,24.30
2017-05-06T10:39:42.826Z,25.56
2017-05-06T10:40:45.175Z,25.56
2017-05-06T10:41:47.541Z,25.18
2017-05-06T10:42:49.893Z,25.46
2017-05-06T10:43:52.849Z,25.56
2017-05-06T10:44:55.202Z,25.27
2017-05-06T10:45:57.568Z,24.02
2017-05-06T10:46:59.932Z,24.40
2017-05-06T10:48:02.295Z,24.30
2017-05-06T10:49:05.347Z,24.50
2017-05-06T10:50:07.720Z,24.98
2017-05-06T10:51:10.085Z,25.37
2017-05-06T10:52:12.440Z,25.66
2017-05-06T10:53:14.803Z,24.88
2017-05-06T10:54:17.713Z,24.40
2017-05-06T10:55:20.069Z,24.21
2017-05-06T10:56:22.429Z,25.27
2017-05-06T10:57:24.785Z,25.46
2017-05-06T10:58:27.145Z,25.66
2017-05-06T10:59:30.199Z,24.88
2017-05-06T11:00:32.555Z,25.46
2017-05-06T11:01:34.917Z,25.85
2017-05-06T11:02:37.278Z,25.56
2017-05-06T11:03:39.647Z,24.40
2017-05-06T11:04:42.602Z,24.02
2017-05-06T11:05:44.961Z,23.92
2017-05-06T11:06:47.318Z,24.02
2017-05-06T11:07:49.672Z,24.30
2017-05-06T11:08:52.038Z,24.02
2017-05-06T11:09:55.096Z,23.63
2017-05-06T11:10:57.452Z,23.05
2017-05-06T11:11:59.810Z,22.47
2017-05-06T11:13:02.170Z,22.09
2017-05-06T11:14:04.538Z,22.19
2017-05-06T11:15:07.601Z,21.89
2017-05-06T11:16:09.960Z,21.31
2017-05-06T11:17:12.309Z,21.31
2017-05-06T11:18:14.662Z,21.22
2017-05-06T11:19:17.022Z,21.70
2017-05-06T11:20:19.983Z,22.28
2017-05-06T11:21:22.339Z,22.96
2017-05-06T11:22:24.699Z,22.19
2017-05-06T11:23:27.050Z,21.99
2017-05-06T11:24:29.406Z,22.38
2017-05-06T11:25:32.370Z,22.57
2017-05-06T11:26:34.722Z,22.86
2017-05-06T11:27:37.087Z,23.05
2017-05-06T11:28:39.449Z,22.67
2017-05-06T11:29:41.804Z,22.38
2017-05-06T11:30:44.859Z,22.28
2017-05-06T11:31:47.217Z,22.10
2017-05-06T11:32:49.585Z,21.71
2017-05-06T11:33:51.936Z,21.52
2017-05-06T11:34:54.304Z,21.91
2017-05-06T11:35:57.266Z,22.10
2017-05-06T11:36:59.632Z,21.62
2017-05-06T11:38:02.001Z,21.62
2017-05-06T11:39:04.370Z,21.52
2017-05-06T11:40:06.727Z,21.52
2017-05-06T11:41:09.785Z,21.62
2017-05-06T11:42:12.168Z,22.76
2017-05-06T11:43:14.508Z,23.25
2017-05-06T11:44:16.863Z,23.92
2017-05-06T11:45:19.234Z,23.35
2017-05-06T11:46:22.216Z,23.25
2017-05-06T11:47:24.549Z,23.35
2017-05-06T11:48:26.909Z,23.16
2017-05-06T11:49:29.268Z,22.49
2017-05-06T11:50:31.636Z,22.10
2017-05-06T11:51:34.696Z,22.67
2017-05-06T11:52:37.058Z,21.23
2017-05-06T11:53:39.413Z,21.81
2017-05-06T11:54:41.775Z,22.49
2017-05-06T11:55:44.143Z,22.67
2017-05-06T11:56:47.101Z,23.45
2017-05-06T11:57:49.467Z,24.88
2017-05-06T11:58:51.836Z,25.27
2017-05-06T11:59:54.203Z,25.08
2017-05-06T12:00:56.566Z,23.72
2017-05-06T12:01:59.475Z,23.72
2017-05-06T12:03:01.840Z,23.63
2017-05-06T12:04:04.204Z,24.60
2017-05-06T12:05:06.569Z,22.86
2017-05-06T12:06:08.956Z,22.38
2017-05-06T12:07:11.837Z,21.22
2017-05-06T12:08:14.208Z,20.65
2017-05-06T12:09:16.569Z,20.06
2017-05-06T12:10:18.934Z,19.48
2017-05-06T12:11:21.296Z,20.46
2017-05-06T12:12:24.355Z,20.36
2017-05-06T12:13:26.727Z,19.78
2017-05-06T12:14:29.084Z,20.07
2017-05-06T12:15:31.446Z,19.78
2017-05-06T12:16:33.818Z,19.59
2017-05-06T12:17:36.871Z,19.49
2017-05-06T12:18:39.247Z,19.68
2017-05-06T12:19:41.598Z,19.59
2017-05-06T12:20:43.958Z,19.40
2017-05-06T12:21:46.321Z,19.01
2017-05-06T12:22:49.280Z,19.49
2017-05-06T12:23:51.644Z,19.68
2017-05-06T12:24:54.005Z,19.78
2017-05-06T12:25:56.369Z,19.59
2017-05-06T12:26:58.736Z,19.59
2017-05-06T12:28:01.795Z,20.07
2017-05-06T12:29:04.168Z,19.59
2017-05-06T12:30:06.530Z,19.98
2017-05-06T12:31:08.897Z,19.89
2017-05-06T12:32:11.269Z,18.53
2017-05-06T12:33:14.342Z,18.73
2017-05-06T12:34:16.705Z,20.08
2017-05-06T12:35:19.069Z,20.86
2017-05-06T12:36:21.430Z,20.84
2017-05-06T12:37:23.800Z,20.47
2017-05-06T12:38:26.711Z,19.50
2017-05-06T12:39:29.077Z,20.37
2017-05-06T12:40:31.443Z,21.24
2017-05-06T12:41:33.812Z,21.14
2017-05-06T12:42:36.176Z,21.82
2017-05-06T12:43:39.141Z,21.92
2017-05-06T12:44:41.511Z,22.30
2017-05-06T12:45:43.877Z,21.44
2017-05-06T12:46:46.238Z,21.92
2017-05-06T12:47:48.602Z,23.46
2017-05-06T12:48:51.571Z,24.33
2017-05-06T12:49:53.941Z,24.33
2017-05-06T12:50:56.316Z,23.36
2017-05-06T12:51:58.677Z,24.43
2017-05-06T12:53:01.048Z,24.44
2017-05-06T12:54:04.114Z,24.23
2017-05-06T12:55:06.473Z,25.49
2017-05-06T12:56:08.836Z,26.17
2017-05-06T12:57:11.209Z,26.07
2017-05-06T12:58:13.565Z,27.61
2017-05-06T12:59:16.536Z,27.03
2017-05-06T13:00:18.894Z,26.65
2017-05-06T13:01:21.277Z,27.51
2017-05-06T13:02:23.627Z,25.79
2017-05-06T13:03:25.993Z,26.18
2017-05-06T13:04:28.960Z,25.79
2017-05-06T13:05:31.331Z,26.45
2017-05-06T13:06:33.702Z,29.35
2017-05-06T13:07:36.089Z,30.04
2017-05-06T13:08:38.447Z,28.30
2017-05-06T13:09:41.524Z,28.50
2017-05-06T13:10:43.889Z,26.56
2017-05-06T13:11:46.259Z,27.53
2017-05-06T13:12:48.621Z,28.30
2017-05-06T13:13:51.000Z,30.32
2017-05-06T13:14:54.064Z,30.91
2017-05-06T13:15:56.427Z,29.17
2017-05-06T13:16:58.791Z,29.74
2017-05-06T13:18:01.166Z,28.69
2017-05-06T13:19:03.528Z,30.90
2017-05-06T13:20:06.599Z,29.25
2017-05-06T13:21:08.969Z,30.90
2017-05-06T13:22:11.331Z,30.22
2017-05-06T13:23:13.696Z,31.38
2017-05-06T13:24:16.064Z,32.24